createdAt,value
2022-09-05T00:02:39.343Z,9.07
2022-09-05T00:06:02.180Z,8.70
2022-09-05T00:08:59.764Z,8.43
2022-09-05T00:11:53.177Z,7.95
2022-09-05T00:15:17.392Z,8.60
2022-09-05T00:23:07.552Z,9.40
2022-09-05T00:24:30.071Z,9.07
2022-09-05T00:28:26.605Z,8.25
2022-09-05T00:31:53.740Z,8.68
2022-09-05T00:34:57.927Z,9.55
2022-09-05T00:37:49.675Z,9.52
2022-09-05T00:40:41.446Z,8.93
2022-09-05T00:43:32.883Z,9.38
2022-09-05T00:46:26.784Z,8.73
2022-09-05T00:49:22.907Z,8.82
2022-09-05T00:52:18.192Z,8.40
2022-09-05T00:55:23.413Z,8.65
2022-09-05T00:58:41.634Z,8.48
2022-09-05T01:01:39.026Z,8.85
2022-09-05T01:04:46.414Z,8.15
2022-09-05T01:07:49.534Z,7.90
2022-09-05T01:10:45.023Z,8.25
2022-09-05T01:13:42.695Z,8.98
2022-09-05T01:16:38.220Z,8.68
2022-09-05T01:19:39.862Z,9.25
2022-09-05T01:23:01.283Z,8.00
2022-09-05T01:26:26.317Z,8.65
2022-09-05T01:29:23.700Z,8.98
2022-09-05T01:32:22.849Z,9.40
2022-09-05T01:35:59.172Z,9.00
2022-09-05T01:40:10.414Z,9.82
2022-09-05T01:42:31.651Z,8.65
2022-09-05T01:45:29.475Z,9.23
2022-09-05T01:48:35.472Z,9.82
2022-09-05T01:51:32.296Z,9.57
2022-09-05T01:54:29.569Z,9.63
2022-09-05T01:57:25.951Z,9.50
2022-09-05T02:00:16.037Z,8.90
2022-09-05T02:03:21.587Z,9.05
2022-09-05T02:06:36.084Z,8.27
2022-09-05T02:09:42.208Z,8.70
2022-09-05T02:12:35.124Z,7.90
2022-09-05T02:15:26.364Z,8.45
2022-09-05T02:18:23.903Z,9.57
2022-09-05T02:21:17.382Z,9.15
2022-09-05T02:24:14.366Z,9.65
2022-09-05T02:27:48.923Z,9.27
2022-09-05T02:30:25.532Z,9.65
2022-09-05T02:33:22.539Z,10.13
2022-09-05T02:36:15.790Z,10.40
2022-09-05T02:44:31.200Z,11.15
2022-09-05T02:45:06.539Z,11.00
2022-09-05T02:45:46.060Z,9.68
2022-09-05T02:48:49.915Z,9.48
2022-09-05T02:57:23.677Z,10.52
2022-09-05T02:57:40.979Z,10.90
2022-09-05T02:58:47.842Z,10.00
2022-09-05T03:01:53.830Z,9.77
2022-09-05T03:04:49.483Z,9.88
2022-09-05T03:08:03.224Z,10.18
2022-09-05T03:11:15.953Z,10.13
2022-09-05T03:14:47.522Z,10.35
2022-09-05T03:18:20.916Z,10.23
2022-09-05T03:21:45.240Z,9.30
2022-09-05T03:25:07.033Z,8.90
2022-09-05T03:28:27.665Z,9.00
2022-09-05T03:31:27.259Z,9.07
2022-09-05T03:34:36.446Z,8.68
2022-09-05T03:37:47.939Z,8.60
2022-09-05T03:41:01.321Z,10.10
2022-09-05T03:44:20.561Z,9.15
2022-09-05T03:47:32.585Z,10.70
2022-09-05T03:57:04.688Z,10.05
2022-09-05T03:57:15.451Z,9.88
2022-09-05T03:57:42.593Z,9.95
2022-09-05T04:00:33.695Z,9.70
2022-09-05T04:08:07.371Z,9.60
2022-09-05T04:08:16.280Z,10.00
2022-09-05T04:09:54.340Z,10.20
2022-09-05T04:12:54.526Z,10.88
2022-09-05T04:15:46.449Z,10.20
2022-09-05T04:18:40.423Z,9.73
2022-09-05T04:21:31.257Z,10.77
2022-09-05T04:24:30.011Z,10.35
2022-09-05T04:27:30.578Z,9.32
2022-09-05T04:30:39.389Z,9.77
2022-09-05T04:33:36.853Z,11.35
2022-09-05T04:36:29.437Z,11.13
2022-09-05T04:39:28.452Z,9.93
2022-09-05T04:42:22.587Z,10.98
2022-09-05T04:45:13.451Z,9.95
2022-09-05T04:48:20.121Z,10.35
2022-09-05T04:51:12.921Z,10.63
2022-09-05T04:54:30.192Z,11.40
2022-09-05T04:57:24.333Z,10.43
2022-09-05T05:05:58.391Z,10.60
2022-09-05T05:06:10.259Z,10.55
2022-09-05T05:06:47.352Z,10.73
2022-09-05T05:09:40.808Z,10.57
2022-09-05T05:17:55.595Z,10.15
2022-09-05T05:18:12.787Z,9.52
2022-09-05T05:19:21.378Z,9.65
2022-09-05T05:22:15.897Z,9.45
2022-09-05T05:25:04.029Z,10.20
2022-09-05T05:28:10.327Z,9.20
2022-09-05T05:31:15.437Z,9.50
2022-09-05T05:34:12.988Z,9.32
2022-09-05T05:37:20.937Z,9.55
2022-09-05T05:40:12.812Z,9.48
2022-09-05T05:43:16.601Z,9.35
2022-09-05T05:46:04.998Z,9.00
2022-09-05T05:49:08.068Z,8.48
2022-09-05T05:52:13.896Z,9.55
2022-09-05T05:55:50.218Z,8.45
2022-09-05T05:58:33.927Z,9.10
2022-09-05T06:02:23.987Z,9.68
2022-09-05T06:05:46.476Z,8.45
2022-09-05T06:12:54.922Z,8.70
2022-09-05T06:14:58.871Z,8.68
2022-09-05T06:16:10.471Z,8.73
2022-09-05T06:20:12.279Z,8.55
2022-09-05T06:23:39.615Z,7.72
2022-09-05T06:27:04.412Z,8.13
2022-09-05T06:30:02.858Z,9.38
2022-09-05T06:33:05.620Z,8.55
2022-09-05T06:36:12.299Z,8.07
2022-09-05T06:39:10.373Z,8.20
2022-09-05T06:42:42.762Z,7.47
2022-09-05T06:45:58.646Z,7.85
2022-09-05T06:49:29.785Z,7.60
2022-09-05T06:52:28.525Z,7.93
2022-09-05T06:55:45.454Z,6.75
2022-09-05T06:59:25.183Z,7.57
2022-09-05T07:02:51.654Z,6.63
2022-09-05T07:05:45.127Z,7.25
2022-09-05T07:08:48.176Z,7.32
2022-09-05T07:11:44.644Z,7.13
2022-09-05T07:14:38.146Z,7.53
2022-09-05T07:18:06.268Z,7.07
2022-09-05T07:21:15.856Z,6.85
2022-09-05T07:24:10.294Z,6.45
2022-09-05T07:27:04.625Z,7.32
2022-09-05T07:30:01.138Z,6.13
2022-09-05T07:32:53.293Z,6.65
2022-09-05T07:35:45.096Z,6.25
2022-09-05T07:38:54.753Z,5.80
2022-09-05T07:41:52.897Z,6.88
2022-09-05T07:44:48.635Z,6.15
2022-09-05T07:47:39.856Z,6.20
2022-09-05T07:54:28.396Z,6.63
2022-09-05T07:57:10.466Z,6.85
2022-09-05T07:57:25.406Z,6.25
2022-09-05T08:00:27.247Z,6.18
2022-09-05T08:03:17.382Z,5.68
2022-09-05T08:06:09.846Z,6.80
2022-09-05T08:09:21.873Z,6.32
2022-09-05T08:12:16.242Z,5.88
2022-09-05T08:15:13.975Z,6.32
2022-09-05T08:18:13.676Z,5.28
2022-09-05T08:21:07.941Z,6.25
2022-09-05T08:24:09.145Z,6.05
2022-09-05T08:27:06.131Z,6.20
2022-09-05T08:33:15.950Z,5.50
2022-09-05T08:36:09.810Z,5.55
2022-09-05T08:39:02.444Z,6.18
2022-09-05T08:42:06.320Z,4.88
2022-09-05T08:46:41.899Z,5.25
2022-09-05T08:48:27.812Z,5.47
2022-09-05T08:51:41.241Z,4.70
2022-09-05T08:55:06.286Z,5.03
2022-09-05T08:58:29.531Z,4.80
2022-09-05T09:01:27.899Z,4.20
2022-09-05T09:04:54.073Z,4.45
2022-09-05T09:07:48.099Z,4.70
2022-09-05T09:10:50.465Z,4.68
2022-09-05T09:13:52.282Z,4.68
2022-09-05T09:16:49.757Z,5.50
2022-09-05T09:19:47.875Z,4.40
2022-09-05T09:22:42.999Z,4.25
2022-09-05T09:25:37.711Z,4.05
2022-09-05T09:28:51.424Z,4.40
2022-09-05T09:31:54.431Z,4.28
2022-09-05T09:35:06.252Z,3.88
2022-09-05T09:38:26.282Z,4.38
2022-09-05T09:41:49.192Z,4.25
2022-09-05T09:45:28.326Z,4.07
2022-09-05T09:48:47.032Z,4.20
2022-09-05T09:51:54.712Z,4.00
2022-09-05T09:55:17.537Z,4.50
2022-09-05T09:58:40.001Z,4.10
2022-09-05T10:01:53.199Z,3.95
2022-09-05T10:10:49.594Z,3.90
2022-09-05T10:11:09.179Z,3.83
2022-09-05T10:12:06.569Z,3.90
2022-09-05T10:15:20.990Z,3.90
2022-09-05T10:18:37.569Z,3.40
2022-09-05T10:25:45.100Z,3.25
2022-09-05T10:28:40.610Z,3.22
2022-09-05T10:35:09.625Z,7.38
2022-09-05T10:35:13.894Z,3.42
2022-09-05T10:38:13.609Z,3.10
2022-09-05T10:41:22.579Z,3.58
2022-09-05T10:44:14.402Z,3.35
2022-09-05T10:47:18.440Z,3.15
2022-09-05T10:50:19.606Z,3.15
2022-09-05T10:53:25.477Z,3.40
2022-09-05T10:56:17.910Z,3.45
2022-09-05T11:00:58.042Z,3.10
2022-09-05T11:02:34.962Z,3.17
2022-09-05T11:05:29.287Z,2.92
2022-09-05T11:08:28.005Z,3.33
2022-09-05T11:11:28.418Z,3.35
2022-09-05T11:14:37.035Z,3.53
2022-09-05T11:17:35.401Z,2.95
2022-09-05T11:20:42.581Z,3.40
2022-09-05T11:23:36.207Z,2.90
2022-09-05T11:26:37.699Z,3.38
2022-09-05T11:29:33.207Z,3.13
2022-09-05T11:39:46.916Z,2.88
2022-09-05T11:39:48.799Z,3.10
2022-09-05T11:40:28.296Z,5.63
2022-09-05T11:43:40.820Z,2.90
2022-09-05T11:46:32.862Z,3.50
2022-09-05T11:49:43.499Z,2.78
2022-09-05T11:53:10.390Z,2.88
2022-09-05T11:56:14.947Z,2.80
2022-09-05T11:59:35.567Z,2.70
2022-09-05T12:02:32.786Z,2.60
2022-09-05T12:05:49.848Z,3.17
2022-09-05T12:08:53.054Z,2.90
2022-09-05T12:11:55.281Z,3.10
2022-09-05T12:14:57.951Z,2.75
2022-09-05T12:18:19.064Z,2.83
2022-09-05T12:21:25.895Z,2.90
2022-09-05T12:25:16.167Z,2.67
2022-09-05T12:27:46.125Z,2.50
2022-09-05T12:31:29.635Z,2.65
2022-09-05T12:36:04.559Z,2.80
2022-09-05T12:40:56.294Z,2.80
2022-09-05T12:41:33.378Z,2.53
2022-09-05T12:44:36.301Z,2.50
2022-09-05T12:46:45.939Z,2.60
2022-09-05T12:49:39.495Z,2.40
2022-09-05T12:52:45.132Z,2.30
2022-09-05T12:55:36.531Z,2.72
2022-09-05T13:03:06.705Z,2.35
2022-09-05T13:03:09.503Z,2.63
2022-09-05T13:05:01.999Z,2.30
2022-09-05T13:07:56.310Z,1.92
2022-09-05T13:13:33.272Z,2.50
2022-09-05T13:14:56.094Z,2.45
2022-09-05T13:17:10.563Z,2.38
2022-09-05T13:19:59.988Z,2.55
2022-09-05T13:22:49.949Z,2.35
2022-09-05T13:25:41.593Z,2.40
2022-09-05T13:28:51.621Z,2.55
2022-09-05T13:38:01.205Z,2.30
2022-09-05T13:38:05.948Z,2.35
2022-09-05T13:38:48.382Z,2.75
2022-09-05T13:41:43.848Z,2.08
2022-09-05T13:44:38.930Z,2.70
2022-09-05T13:47:54.170Z,2.58
2022-09-05T13:50:46.980Z,2.95
2022-09-05T13:53:51.481Z,2.58
2022-09-05T13:56:48.614Z,2.53
2022-09-05T13:59:42.606Z,2.20
2022-09-05T14:06:03.528Z,2.80
2022-09-05T14:09:41.120Z,2.60
2022-09-05T14:12:40.197Z,2.30
2022-09-05T14:15:38.381Z,2.40
2022-09-05T14:18:32.451Z,2.20
2022-09-05T14:21:21.324Z,2.50
2022-09-05T14:24:27.555Z,2.30
2022-09-05T14:27:23.939Z,2.65
2022-09-05T14:33:13.854Z,2.33
2022-09-05T14:37:50.200Z,2.13
2022-09-05T14:37:51.909Z,28.55
2022-09-05T14:41:24.365Z,2.92
2022-09-05T14:44:47.976Z,3.25
2022-09-05T14:47:59.075Z,2.25
2022-09-05T14:51:25.667Z,2.22
2022-09-05T15:02:39.477Z,2.33
2022-09-05T15:02:40.790Z,2.25
2022-09-05T15:07:23.586Z,2.33
2022-09-05T15:12:16.258Z,2.40
2022-09-05T15:13:35.990Z,1.85
2022-09-05T15:16:27.891Z,2.20
2022-09-05T15:20:05.655Z,2.05
2022-09-05T15:22:57.717Z,1.90
2022-09-05T15:25:48.503Z,5.55
2022-09-05T15:28:38.082Z,7.05
2022-09-05T15:31:28.286Z,3.65
2022-09-05T15:34:26.368Z,4.25
2022-09-05T15:37:26.792Z,2.38
2022-09-05T15:40:23.029Z,2.58
2022-09-05T15:43:17.758Z,2.20
2022-09-05T15:46:07.594Z,3.17
2022-09-05T15:48:57.733Z,2.30
2022-09-05T15:51:49.931Z,2.83
2022-09-05T15:54:42.898Z,2.63
2022-09-05T15:57:46.067Z,2.22
2022-09-05T16:00:47.108Z,2.35
2022-09-05T16:07:47.334Z,2.95
2022-09-05T16:10:41.914Z,3.35
2022-09-05T16:10:49.020Z,3.58
2022-09-05T16:13:17.465Z,4.10
2022-09-05T16:23:17.121Z,2.78
2022-09-05T16:23:20.624Z,3.10
2022-09-05T16:23:26.370Z,2.28
2022-09-05T16:25:46.165Z,2.60
2022-09-05T16:28:39.931Z,2.85
2022-09-05T16:31:38.228Z,2.85
2022-09-05T16:34:32.835Z,2.33
2022-09-05T16:37:26.783Z,2.60
2022-09-05T16:40:24.192Z,2.40
2022-09-05T16:43:19.216Z,2.88
2022-09-05T16:46:16.364Z,2.50
2022-09-05T16:49:15.464Z,2.95
2022-09-05T16:52:07.677Z,2.75
2022-09-05T16:55:03.330Z,3.15
2022-09-05T16:58:02.071Z,3.00
2022-09-05T17:01:23.888Z,3.13
2022-09-05T17:04:18.001Z,3.15
2022-09-05T17:07:17.943Z,3.63
2022-09-05T17:10:09.305Z,3.38
2022-09-05T17:12:57.806Z,3.28
2022-09-05T17:15:52.735Z,3.22
2022-09-05T17:18:43.017Z,3.33
2022-09-05T17:25:36.892Z,2.95
2022-09-05T17:29:30.405Z,3.20
2022-09-05T17:29:33.328Z,3.28
2022-09-05T17:35:16.627Z,3.63
2022-09-05T17:38:25.802Z,4.13
2022-09-05T17:42:03.258Z,3.40
2022-09-05T17:45:04.093Z,3.90
2022-09-05T17:47:53.822Z,3.40
2022-09-05T17:50:54.039Z,4.10
2022-09-05T17:54:28.315Z,3.33
2022-09-05T17:57:36.606Z,4.03
2022-09-05T18:01:00.485Z,3.28
2022-09-05T18:04:16.587Z,3.78
2022-09-05T18:08:00.389Z,3.60
2022-09-05T18:11:07.271Z,3.60
2022-09-05T18:14:04.311Z,3.90
2022-09-05T18:17:37.752Z,3.55
2022-09-05T18:20:09.455Z,3.95
2022-09-05T18:26:46.528Z,3.55
2022-09-05T18:29:58.503Z,4.25
2022-09-05T18:33:54.178Z,3.63
2022-09-05T18:36:36.082Z,4.03
2022-09-05T18:40:03.708Z,3.60
2022-09-05T18:42:54.508Z,4.47
2022-09-05T18:45:52.817Z,4.65
2022-09-05T18:48:43.993Z,4.55
2022-09-05T18:51:55.083Z,5.18
2022-09-05T18:55:31.734Z,4.07
2022-09-05T18:57:59.480Z,4.80
2022-09-05T19:00:49.427Z,4.05
2022-09-05T19:03:38.529Z,4.13
2022-09-05T19:06:36.385Z,4.32
2022-09-05T19:09:29.088Z,4.43
2022-09-05T19:12:33.943Z,4.30
2022-09-05T19:15:29.909Z,4.40
2022-09-05T19:18:27.006Z,4.93
2022-09-05T19:21:19.782Z,4.72
2022-09-05T19:24:12.883Z,3.97
2022-09-05T19:27:35.857Z,4.70
2022-09-05T19:36:50.636Z,4.50
2022-09-05T19:36:55.954Z,4.22
2022-09-05T19:37:08.194Z,4.57
2022-09-05T19:42:44.908Z,3.95
2022-09-05T19:47:39.127Z,3.80
2022-09-05T19:47:42.046Z,4.60
2022-09-05T19:49:24.570Z,4.25
2022-09-05T19:52:17.170Z,4.05
2022-09-05T19:55:21.255Z,4.57
2022-09-05T19:58:20.023Z,4.15
2022-09-05T20:01:20.837Z,4.65
2022-09-05T20:04:08.820Z,4.32
2022-09-05T20:06:58.074Z,4.10
2022-09-05T20:09:47.660Z,4.78
2022-09-05T20:12:37.549Z,4.10
2022-09-05T20:15:36.102Z,4.45
2022-09-05T20:18:26.109Z,4.80
2022-09-05T20:21:17.652Z,4.10
2022-09-05T20:24:07.909Z,3.83
2022-09-05T20:26:56.118Z,4.40
2022-09-05T20:29:54.789Z,3.80
2022-09-05T20:32:47.565Z,3.83
2022-09-05T20:41:32.151Z,4.30
2022-09-05T20:43:21.002Z,4.10
2022-09-05T20:43:35.226Z,3.47
2022-09-05T20:45:11.360Z,3.72
2022-09-05T20:54:06.843Z,3.22
2022-09-05T20:54:28.946Z,3.70
2022-09-05T20:54:39.431Z,3.60
2022-09-05T20:57:32.925Z,3.15
2022-09-05T21:00:23.066Z,3.25
2022-09-05T21:03:15.849Z,3.15
2022-09-05T21:06:20.163Z,2.90
2022-09-05T21:09:24.540Z,3.50
2022-09-05T21:12:27.693Z,3.00
2022-09-05T21:15:52.727Z,2.45
2022-09-05T21:18:33.305Z,2.95
2022-09-05T21:21:29.270Z,2.63
2022-09-05T21:24:24.666Z,2.70
2022-09-05T21:27:18.301Z,2.92
2022-09-05T21:30:27.607Z,2.50
2022-09-05T21:33:24.195Z,2.38
2022-09-05T21:36:27.637Z,2.20
2022-09-05T21:39:15.645Z,2.40
2022-09-05T21:42:18.565Z,2.60
2022-09-05T21:47:47.726Z,2.28
2022-09-05T21:48:21.448Z,2.20
2022-09-05T21:51:10.470Z,1.98
2022-09-05T21:58:02.148Z,2.55
2022-09-05T21:59:18.876Z,1.90
2022-09-05T22:00:28.171Z,2.08
2022-09-05T22:03:18.026Z,2.10
2022-09-05T22:06:09.512Z,2.05
2022-09-05T22:09:13.340Z,1.95
2022-09-05T22:12:06.157Z,1.80
2022-09-05T22:15:29.184Z,2.17
2022-09-05T22:18:18.260Z,1.75
2022-09-05T22:21:32.470Z,1.90
2022-09-05T22:24:22.588Z,2.03
2022-09-05T22:27:12.455Z,2.20
2022-09-05T22:30:01.977Z,2.40
2022-09-05T22:32:49.870Z,2.03
2022-09-05T22:35:39.272Z,2.38
2022-09-05T22:38:28.276Z,2.30
2022-09-05T22:41:16.026Z,1.98
2022-09-05T22:44:05.619Z,1.95
2022-09-05T22:46:54.171Z,2.10
2022-09-05T22:49:42.190Z,2.13
2022-09-05T22:52:29.935Z,1.60
2022-09-05T22:55:19.376Z,1.77
2022-09-05T22:58:09.477Z,1.75
2022-09-05T23:00:57.201Z,1.70
2022-09-05T23:03:44.919Z,2.20
2022-09-05T23:06:32.836Z,1.67
2022-09-05T23:09:20.336Z,1.90
2022-09-05T23:12:09.712Z,1.70
2022-09-05T23:14:57.371Z,1.67
2022-09-05T23:17:44.874Z,2.00
2022-09-05T23:20:33.634Z,2.00
2022-09-05T23:23:21.720Z,2.05
2022-09-05T23:26:12.552Z,1.75
2022-09-05T23:29:02.506Z,2.20
2022-09-05T23:31:50.781Z,2.30
2022-09-05T23:34:38.737Z,1.83
2022-09-05T23:37:26.887Z,1.60
2022-09-05T23:40:16.826Z,1.70
2022-09-05T23:43:05.421Z,1.90
2022-09-05T23:45:54.669Z,1.85
2022-09-05T23:48:42.233Z,1.80
2022-09-05T23:51:29.966Z,1.60
2022-09-05T23:54:17.694Z,1.70
2022-09-05T23:57:05.767Z,1.50
2022-09-05T23:59:53.423Z,1.48
